createdAt,value
2022-07-28T00:00:44.846Z,16.49
2022-07-28T00:03:13.004Z,16.44
2022-07-28T00:05:41.502Z,16.30
2022-07-28T00:08:12.406Z,16.36
2022-07-28T00:10:44.993Z,16.38
2022-07-28T00:13:15.435Z,16.30
2022-07-28T00:15:43.578Z,16.26
2022-07-28T00:18:11.909Z,16.22
2022-07-28T00:20:40.225Z,16.20
2022-07-28T00:23:08.212Z,16.13
2022-07-28T00:25:37.667Z,15.96
2022-07-28T00:28:06.559Z,16.08
2022-07-28T00:30:34.605Z,16.02
2022-07-28T00:33:05.499Z,16.02
2022-07-28T00:35:36.454Z,15.98
2022-07-28T00:38:04.571Z,15.92
2022-07-28T00:40:53.154Z,15.88
2022-07-28T00:43:22.520Z,15.91
2022-07-28T00:45:50.761Z,15.86
2022-07-28T00:48:19.172Z,15.78
2022-07-28T00:50:47.458Z,15.79
2022-07-28T00:53:18.449Z,15.68
2022-07-28T00:56:02.680Z,15.72
2022-07-28T00:58:37.061Z,15.69
2022-07-28T01:01:05.707Z,15.71
2022-07-28T01:03:35.898Z,15.62
2022-07-28T01:06:10.026Z,15.58
2022-07-28T01:08:50.359Z,15.54
2022-07-28T01:11:27.293Z,15.49
2022-07-28T01:14:10.777Z,15.49
2022-07-28T01:16:46.656Z,15.43
2022-07-28T01:19:29.221Z,15.39
2022-07-28T01:22:00.795Z,15.38
2022-07-28T01:24:34.730Z,15.34
2022-07-28T01:27:09.034Z,15.30
2022-07-28T01:30:07.673Z,15.25
2022-07-28T01:32:41.416Z,15.20
2022-07-28T01:35:15.138Z,15.16
2022-07-28T01:37:47.362Z,15.17
2022-07-28T01:40:19.695Z,15.16
2022-07-28T01:42:52.297Z,15.14
2022-07-28T01:45:21.843Z,15.11
2022-07-28T01:47:53.768Z,15.04
2022-07-28T01:50:23.784Z,15.01
2022-07-28T01:52:52.712Z,15.00
2022-07-28T01:55:24.089Z,15.02
2022-07-28T01:57:56.526Z,15.02
2022-07-28T02:00:27.781Z,14.97
2022-07-28T02:02:58.981Z,14.92
2022-07-28T02:05:30.950Z,14.89
2022-07-28T02:08:01.733Z,14.85
2022-07-28T02:10:31.184Z,14.85
2022-07-28T02:13:01.654Z,14.82
2022-07-28T02:15:33.376Z,14.81
2022-07-28T02:18:04.048Z,14.80
2022-07-28T02:20:33.562Z,14.79
2022-07-28T02:23:02.305Z,14.82
2022-07-28T02:25:31.322Z,14.75
2022-07-28T02:28:04.842Z,14.80
2022-07-28T02:30:39.318Z,14.79
2022-07-28T02:33:16.295Z,14.84
2022-07-28T02:35:58.776Z,14.79
2022-07-28T02:38:30.901Z,14.79
2022-07-28T02:41:03.846Z,14.76
2022-07-28T02:43:49.373Z,14.77
2022-07-28T02:46:23.610Z,14.73
2022-07-28T02:48:57.803Z,14.70
2022-07-28T02:51:29.922Z,14.68
2022-07-28T02:53:59.129Z,14.67
2022-07-28T02:56:28.492Z,14.64
2022-07-28T02:58:58.488Z,14.58
2022-07-28T03:01:27.391Z,14.60
2022-07-28T03:03:58.967Z,14.59
2022-07-28T03:06:28.838Z,14.54
2022-07-28T03:09:00.003Z,14.49
2022-07-28T03:11:30.469Z,14.52
2022-07-28T03:14:01.860Z,14.51
2022-07-28T03:16:30.502Z,14.51
2022-07-28T03:19:00.044Z,14.46
2022-07-28T03:21:28.735Z,14.40
2022-07-28T03:23:57.612Z,14.40
2022-07-28T03:26:32.001Z,14.35
2022-07-28T03:29:01.740Z,14.36
2022-07-28T03:31:35.104Z,14.30
2022-07-28T03:34:05.352Z,14.32
2022-07-28T03:36:41.081Z,14.30
2022-07-28T03:39:12.157Z,14.23
2022-07-28T03:41:43.232Z,14.23
2022-07-28T03:44:12.869Z,14.27
2022-07-28T03:46:45.367Z,14.23
2022-07-28T03:49:14.916Z,14.25
2022-07-28T03:51:45.321Z,14.25
2022-07-28T03:54:13.724Z,14.27
2022-07-28T03:56:44.090Z,14.30
2022-07-28T03:59:14.990Z,14.30
2022-07-28T04:01:45.191Z,14.32
2022-07-28T04:04:15.693Z,14.30
2022-07-28T04:06:43.997Z,14.34
2022-07-28T04:09:12.647Z,14.34
2022-07-28T04:11:40.724Z,14.34
2022-07-28T04:14:13.248Z,14.29
2022-07-28T04:16:44.889Z,14.23
2022-07-28T04:21:26.673Z,14.37
2022-07-28T04:24:01.674Z,14.40
2022-07-28T04:26:30.367Z,14.41
2022-07-28T04:29:03.227Z,14.43
2022-07-28T04:31:32.226Z,14.43
2022-07-28T04:34:00.939Z,14.48
2022-07-28T04:36:30.307Z,14.53
2022-07-28T04:38:59.339Z,14.56
2022-07-28T04:41:28.088Z,14.56
2022-07-28T04:43:56.658Z,14.59
2022-07-28T04:46:24.774Z,14.63
2022-07-28T04:48:53.456Z,14.68
2022-07-28T04:51:23.138Z,14.71
2022-07-28T04:53:53.371Z,14.76
2022-07-28T04:56:21.636Z,14.75
2022-07-28T04:58:49.852Z,14.79
2022-07-28T05:01:17.930Z,14.85
2022-07-28T05:03:46.306Z,14.95
2022-07-28T05:06:14.330Z,14.92
2022-07-28T05:08:44.842Z,14.97
2022-07-28T05:11:15.096Z,15.06
2022-07-28T05:13:45.360Z,15.11
2022-07-28T05:16:13.419Z,15.18
2022-07-28T05:18:42.083Z,15.26
2022-07-28T05:21:12.786Z,15.37
2022-07-28T05:23:47.454Z,15.39
2022-07-28T05:26:17.461Z,15.40
2022-07-28T05:28:45.806Z,15.36
2022-07-28T05:31:16.377Z,15.56
2022-07-28T05:33:46.940Z,15.57
2022-07-28T05:36:15.189Z,15.50
2022-07-28T05:38:43.366Z,15.59
2022-07-28T05:41:11.482Z,15.69
2022-07-28T05:43:41.206Z,15.83
2022-07-28T05:46:11.933Z,15.94
2022-07-28T05:48:40.855Z,16.06
2022-07-28T05:51:09.103Z,16.33
2022-07-28T05:53:42.111Z,16.52
2022-07-28T05:56:10.545Z,16.60
2022-07-28T05:58:38.555Z,16.71
2022-07-28T06:01:08.348Z,16.97
2022-07-28T06:03:41.913Z,17.67
2022-07-28T06:06:15.771Z,18.43
2022-07-28T06:08:46.426Z,18.63
2022-07-28T06:11:21.755Z,19.14
2022-07-28T06:13:54.120Z,19.53
2022-07-28T06:16:23.896Z,19.32
2022-07-28T06:18:52.720Z,18.96
2022-07-28T06:21:24.403Z,19.20
2022-07-28T06:23:52.550Z,19.51
2022-07-28T06:26:23.818Z,19.28
2022-07-28T06:28:52.765Z,19.07
2022-07-28T06:31:20.913Z,19.05
2022-07-28T06:33:50.776Z,18.82
2022-07-28T06:36:19.197Z,18.64
2022-07-28T06:38:49.993Z,18.48
2022-07-28T06:41:18.433Z,18.65
2022-07-28T06:43:48.935Z,18.44
2022-07-28T06:46:19.746Z,19.01
2022-07-28T06:48:48.118Z,18.99
2022-07-28T06:51:19.973Z,19.12
2022-07-28T06:53:48.915Z,19.57
2022-07-28T06:56:19.769Z,19.45
2022-07-28T06:58:49.702Z,19.83
2022-07-28T07:01:17.952Z,19.67
2022-07-28T07:03:46.332Z,19.85
2022-07-28T07:06:14.530Z,20.07
2022-07-28T07:08:43.868Z,19.87
2022-07-28T07:11:14.697Z,20.13
2022-07-28T07:13:42.981Z,20.10
2022-07-28T07:16:11.152Z,20.06
2022-07-28T07:18:40.071Z,19.97
2022-07-28T07:21:08.360Z,21.06
2022-07-28T07:23:38.934Z,21.00
2022-07-28T07:26:08.689Z,21.26
2022-07-28T07:28:40.225Z,21.37
2022-07-28T07:31:11.023Z,21.34
2022-07-28T07:33:39.093Z,22.17
2022-07-28T07:36:07.927Z,22.31
2022-07-28T07:38:36.177Z,22.41
2022-07-28T07:41:04.263Z,22.97
2022-07-28T07:43:33.975Z,23.07
2022-07-28T07:46:02.059Z,23.68
2022-07-28T07:48:30.380Z,23.42
2022-07-28T07:50:58.502Z,23.82
2022-07-28T07:53:26.842Z,23.78
2022-07-28T07:55:54.899Z,24.42
2022-07-28T07:58:23.702Z,24.90
2022-07-28T08:00:53.646Z,26.06
2022-07-28T08:03:22.671Z,27.20
2022-07-28T08:05:54.978Z,27.67
2022-07-28T08:08:25.912Z,27.80
2022-07-28T08:10:54.599Z,27.74
2022-07-28T08:13:23.828Z,28.71
2022-07-28T08:15:53.736Z,28.75
2022-07-28T08:18:22.135Z,29.41
2022-07-28T08:20:52.815Z,30.29
2022-07-28T08:23:26.079Z,30.34
2022-07-28T08:25:55.496Z,30.08
2022-07-28T08:28:23.617Z,30.77
2022-07-28T08:30:53.588Z,31.38
2022-07-28T08:33:21.996Z,31.29
2022-07-28T08:35:51.105Z,31.01
2022-07-28T08:38:20.105Z,31.67
2022-07-28T08:40:52.603Z,32.08
2022-07-28T08:43:31.558Z,31.96
2022-07-28T08:46:04.336Z,32.20
2022-07-28T08:48:36.260Z,31.97
2022-07-28T08:51:06.191Z,32.33
2022-07-28T08:53:36.514Z,32.29
2022-07-28T08:56:07.231Z,31.47
2022-07-28T08:58:37.193Z,30.10
2022-07-28T09:01:11.053Z,29.52
2022-07-28T09:03:40.236Z,31.31
2022-07-28T09:06:09.400Z,31.56
2022-07-28T09:08:39.995Z,31.53
2022-07-28T09:11:11.800Z,30.59
2022-07-28T09:13:40.236Z,31.14
2022-07-28T09:16:09.758Z,30.81
2022-07-28T09:18:38.289Z,31.65
2022-07-28T09:22:26.866Z,32.90
2022-07-28T09:24:55.517Z,32.74
2022-07-28T09:27:24.270Z,32.35
2022-07-28T09:30:00.108Z,32.65
2022-07-28T09:32:31.549Z,32.91
2022-07-28T09:34:59.596Z,33.43
2022-07-28T09:37:30.157Z,33.07
2022-07-28T09:39:59.323Z,33.80
2022-07-28T09:42:45.646Z,33.66
2022-07-28T09:45:22.838Z,33.61
2022-07-28T09:48:10.319Z,34.81
2022-07-28T09:50:41.831Z,35.52
2022-07-28T09:53:27.428Z,34.62
2022-07-28T09:56:00.333Z,33.29
2022-07-28T09:58:30.264Z,33.70
2022-07-28T10:01:09.548Z,34.65
2022-07-28T10:03:43.867Z,34.98
2022-07-28T10:06:16.106Z,35.57
2022-07-28T10:08:49.846Z,35.43
2022-07-28T10:11:21.625Z,36.61
2022-07-28T10:14:00.664Z,36.33
2022-07-28T10:16:31.027Z,34.71
2022-07-28T10:19:01.117Z,33.60
2022-07-28T10:21:31.781Z,32.73
2022-07-28T10:24:07.387Z,31.99
2022-07-28T10:26:39.523Z,31.38
2022-07-28T10:29:08.654Z,31.31
2022-07-28T10:31:44.605Z,31.78
2022-07-28T10:34:32.891Z,31.41
2022-07-28T10:37:04.559Z,31.44
2022-07-28T10:39:42.701Z,30.77
2022-07-28T10:42:13.087Z,30.78
2022-07-28T10:44:47.936Z,30.52
2022-07-28T10:47:18.452Z,29.91
2022-07-28T10:49:49.642Z,29.87
2022-07-28T10:52:46.242Z,29.95
2022-07-28T10:55:20.479Z,30.01
2022-07-28T10:58:02.137Z,29.15
2022-07-28T11:00:55.871Z,29.31
2022-07-28T11:03:40.935Z,30.50
2022-07-28T11:06:27.648Z,32.13
2022-07-28T11:08:59.254Z,33.12
2022-07-28T11:11:51.213Z,33.91
2022-07-28T11:14:37.099Z,34.28
2022-07-28T11:17:24.569Z,34.34
2022-07-28T11:20:27.159Z,33.13
2022-07-28T11:22:51.953Z,33.50
2022-07-28T11:25:23.098Z,32.75
2022-07-28T11:28:04.399Z,32.74
2022-07-28T11:30:53.430Z,32.42
2022-07-28T11:33:22.722Z,33.48
2022-07-28T11:35:56.125Z,33.13
2022-07-28T11:38:24.562Z,34.31
2022-07-28T11:40:57.314Z,34.07
2022-07-28T11:43:36.426Z,34.01
2022-07-28T11:46:34.250Z,34.67
2022-07-28T11:49:25.941Z,34.95
2022-07-28T11:52:20.130Z,32.48
2022-07-28T11:54:56.457Z,32.45
2022-07-28T11:57:26.353Z,33.40
2022-07-28T12:00:01.887Z,33.79
2022-07-28T12:02:35.382Z,32.90
2022-07-28T12:05:10.844Z,32.73
2022-07-28T12:07:42.100Z,32.18
2022-07-28T12:13:27.335Z,31.78
2022-07-28T12:15:57.097Z,31.42
2022-07-28T12:18:25.397Z,31.10
2022-07-28T12:20:54.694Z,30.36
2022-07-28T12:23:39.327Z,31.11
2022-07-28T12:26:29.532Z,30.73
2022-07-28T12:29:01.054Z,30.78
2022-07-28T12:31:33.422Z,30.95
2022-07-28T12:34:02.322Z,30.43
2022-07-28T12:36:31.339Z,30.39
2022-07-28T12:39:00.399Z,29.64
2022-07-28T12:41:33.606Z,29.76
2022-07-28T12:44:05.863Z,29.60
2022-07-28T12:46:35.871Z,29.69
2022-07-28T12:49:04.299Z,30.10
2022-07-28T12:51:34.429Z,30.02
2022-07-28T12:54:03.388Z,30.29
2022-07-28T12:56:32.136Z,30.13
2022-07-28T12:59:07.591Z,30.10
2022-07-28T13:01:48.087Z,29.77
2022-07-28T13:04:17.086Z,29.88
2022-07-28T13:06:56.586Z,29.75
2022-07-28T13:09:32.853Z,30.25
2022-07-28T13:12:04.286Z,30.46
2022-07-28T13:14:42.312Z,30.43
2022-07-28T13:17:12.462Z,30.39
2022-07-28T13:19:40.663Z,30.21
2022-07-28T13:22:12.080Z,29.94
2022-07-28T13:24:40.807Z,30.19
2022-07-28T13:27:10.664Z,30.27
2022-07-28T13:29:38.947Z,30.43
2022-07-28T13:32:07.949Z,30.42
2022-07-28T13:34:37.553Z,30.33
2022-07-28T13:37:07.050Z,30.10
2022-07-28T13:39:35.267Z,29.93
2022-07-28T13:42:10.436Z,29.78
2022-07-28T13:44:39.617Z,29.46
2022-07-28T13:47:08.418Z,29.51
2022-07-28T13:49:38.449Z,29.68
2022-07-28T13:52:12.825Z,29.99
2022-07-28T13:54:41.634Z,29.74
2022-07-28T13:57:12.255Z,29.86
2022-07-28T13:59:44.121Z,29.43
2022-07-28T14:02:15.734Z,29.44
2022-07-28T14:04:50.268Z,29.02
2022-07-28T14:07:21.795Z,29.02
2022-07-28T14:09:51.476Z,28.90
2022-07-28T14:12:22.127Z,28.97
2022-07-28T14:14:50.379Z,28.77
2022-07-28T14:23:27.494Z,28.83
2022-07-28T14:26:18.448Z,28.67
2022-07-28T14:28:43.881Z,28.80
2022-07-28T14:31:12.096Z,28.45
2022-07-28T14:33:45.568Z,28.80
2022-07-28T14:36:17.489Z,29.18
2022-07-28T14:38:53.454Z,29.25
2022-07-28T14:41:23.525Z,29.39
2022-07-28T14:43:51.974Z,29.10
2022-07-28T14:46:22.209Z,29.10
2022-07-28T14:49:00.778Z,29.11
2022-07-28T14:51:31.733Z,29.29
2022-07-28T14:54:06.643Z,29.04
2022-07-28T14:56:35.497Z,29.14
2022-07-28T14:59:03.628Z,29.24
2022-07-28T15:01:35.867Z,28.87
2022-07-28T15:04:04.886Z,29.14
2022-07-28T15:06:35.172Z,29.14
2022-07-28T15:09:03.664Z,29.16
2022-07-28T15:11:33.533Z,29.25
2022-07-28T15:14:01.853Z,29.23
2022-07-28T15:16:30.306Z,28.96
2022-07-28T15:18:58.303Z,28.76
2022-07-28T15:21:26.668Z,28.63
2022-07-28T15:23:54.833Z,28.32
2022-07-28T15:26:23.427Z,28.24
2022-07-28T15:28:53.552Z,28.12
2022-07-28T15:31:23.427Z,27.92
2022-07-28T15:33:57.791Z,27.98
2022-07-28T15:36:26.403Z,27.90
2022-07-28T15:38:55.626Z,27.77
2022-07-28T15:41:25.820Z,27.84
2022-07-28T15:43:56.412Z,27.82
2022-07-28T15:46:24.502Z,27.88
2022-07-28T15:48:54.448Z,27.97
2022-07-28T15:51:26.133Z,28.23
2022-07-28T15:53:56.207Z,28.09
2022-07-28T15:56:26.407Z,27.89
2022-07-28T15:58:58.878Z,27.86
2022-07-28T16:01:27.644Z,27.83
2022-07-28T16:03:56.278Z,27.77
2022-07-28T16:06:24.634Z,27.65
2022-07-28T16:08:53.274Z,27.75
2022-07-28T16:11:23.966Z,27.93
2022-07-28T16:13:54.546Z,27.96
2022-07-28T16:16:26.308Z,27.95
2022-07-28T16:18:59.151Z,28.09
2022-07-28T16:21:29.464Z,27.89
2022-07-28T16:24:00.114Z,27.82
2022-07-28T16:26:30.337Z,27.80
2022-07-28T16:29:00.830Z,27.67
2022-07-28T16:31:30.604Z,27.45
2022-07-28T16:33:58.864Z,27.33
2022-07-28T16:36:29.336Z,27.20
2022-07-28T16:38:57.690Z,27.22
2022-07-28T16:41:46.968Z,27.29
2022-07-28T16:44:17.039Z,27.26
2022-07-28T16:46:46.965Z,27.24
2022-07-28T16:49:17.809Z,27.22
2022-07-28T16:51:45.898Z,27.29
2022-07-28T16:54:14.500Z,27.30
2022-07-28T16:56:43.025Z,27.24
2022-07-28T16:59:13.618Z,27.12
2022-07-28T17:01:45.889Z,27.12
2022-07-28T17:04:17.072Z,27.01
2022-07-28T17:06:48.353Z,26.96
2022-07-28T17:09:17.242Z,26.94
2022-07-28T17:11:45.521Z,26.94
2022-07-28T17:14:19.097Z,26.83
2022-07-28T17:16:47.338Z,26.83
2022-07-28T17:19:21.680Z,26.78
2022-07-28T17:21:49.870Z,26.79
2022-07-28T17:24:18.638Z,26.71
2022-07-28T17:29:36.603Z,26.67
2022-07-28T17:32:05.835Z,26.59
2022-07-28T17:34:37.801Z,26.51
2022-07-28T17:37:06.683Z,26.49
2022-07-28T17:39:34.725Z,26.48
2022-07-28T17:42:03.832Z,26.46
2022-07-28T17:44:32.040Z,26.41
2022-07-28T17:47:01.691Z,26.30
2022-07-28T17:49:30.191Z,26.31
2022-07-28T17:51:59.981Z,26.27
2022-07-28T17:54:48.333Z,26.24
2022-07-28T17:57:18.025Z,26.19
2022-07-28T17:59:51.601Z,26.13
2022-07-28T18:02:22.756Z,26.05
2022-07-28T18:04:50.894Z,26.01
2022-07-28T18:07:20.667Z,25.91
2022-07-28T18:09:48.665Z,25.79
2022-07-28T18:12:17.183Z,25.70
2022-07-28T18:14:45.173Z,25.62
2022-07-28T18:17:15.844Z,25.59
2022-07-28T18:19:45.717Z,25.53
2022-07-28T18:22:14.190Z,25.48
2022-07-28T18:24:43.645Z,25.40
2022-07-28T18:27:12.097Z,25.39
2022-07-28T18:29:42.822Z,25.29
2022-07-28T18:32:12.163Z,25.27
2022-07-28T18:34:42.395Z,25.20
2022-07-28T18:37:10.367Z,25.16
2022-07-28T18:39:38.345Z,25.14
2022-07-28T18:42:08.196Z,25.14
2022-07-28T18:44:36.280Z,25.11
2022-07-28T18:47:04.778Z,25.09
2022-07-28T18:49:37.467Z,25.08
2022-07-28T18:52:08.576Z,25.04
2022-07-28T18:54:36.826Z,25.02
2022-07-28T18:57:08.622Z,24.97
2022-07-28T18:59:44.576Z,24.93
2022-07-28T19:02:14.991Z,24.89
2022-07-28T19:04:43.492Z,24.81
2022-07-28T19:07:11.689Z,24.72
2022-07-28T19:09:40.184Z,24.64
2022-07-28T19:12:12.625Z,24.57
2022-07-28T19:14:43.173Z,24.46
2022-07-28T19:17:13.399Z,24.40
2022-07-28T19:19:43.410Z,24.31
2022-07-28T19:24:26.958Z,24.15
2022-07-28T19:26:57.175Z,24.12
2022-07-28T19:29:27.828Z,24.13
2022-07-28T19:31:55.957Z,24.12
2022-07-28T19:34:24.211Z,24.08
2022-07-28T19:36:53.184Z,24.02
2022-07-28T19:39:21.237Z,23.96
2022-07-28T19:41:50.814Z,23.94
2022-07-28T19:44:19.826Z,23.86
2022-07-28T19:46:48.728Z,23.79
2022-07-28T19:49:17.850Z,23.78
2022-07-28T19:51:48.334Z,23.68
2022-07-28T19:54:20.825Z,23.61
2022-07-28T19:56:53.724Z,23.56
2022-07-28T19:59:23.668Z,23.39
2022-07-28T20:01:51.931Z,23.30
2022-07-28T20:04:22.737Z,23.13
2022-07-28T20:06:55.494Z,23.02
2022-07-28T20:09:24.635Z,22.92
2022-07-28T20:11:54.873Z,22.81
2022-07-28T20:14:25.623Z,22.73
2022-07-28T20:16:53.834Z,22.70
2022-07-28T20:19:22.198Z,22.66
2022-07-28T20:21:50.246Z,22.63
2022-07-28T20:24:19.962Z,22.60
2022-07-28T20:26:50.162Z,22.57
2022-07-28T20:29:19.869Z,22.58
2022-07-28T20:31:49.491Z,22.61
2022-07-28T20:34:18.331Z,22.53
2022-07-28T20:36:46.828Z,22.54
2022-07-28T20:39:42.049Z,22.52
2022-07-28T20:42:04.335Z,22.51
2022-07-28T20:44:34.081Z,22.47
2022-07-28T20:47:02.438Z,22.46
2022-07-28T20:49:30.913Z,22.40
2022-07-28T20:52:01.828Z,22.39
2022-07-28T20:54:29.843Z,22.37
2022-07-28T20:56:57.988Z,22.33
2022-07-28T20:59:27.862Z,22.30
2022-07-28T21:01:57.913Z,22.31
2022-07-28T21:04:26.680Z,22.25
2022-07-28T21:07:01.543Z,22.26
2022-07-28T21:09:30.705Z,22.23
2022-07-28T21:11:59.502Z,22.19
2022-07-28T21:14:27.549Z,22.20
2022-07-28T21:16:59.744Z,22.18
2022-07-28T21:19:30.282Z,22.18
2022-07-28T21:21:58.310Z,22.14
2022-07-28T21:24:28.861Z,22.08
2022-07-28T21:26:57.285Z,22.10
2022-07-28T21:29:26.869Z,22.11
2022-07-28T21:32:03.531Z,22.15
2022-07-28T21:34:38.197Z,22.13
2022-07-28T21:37:07.638Z,22.18
2022-07-28T21:39:36.591Z,22.19
2022-07-28T21:42:08.061Z,22.20
2022-07-28T21:44:36.242Z,22.15
2022-07-28T21:47:04.570Z,22.14
2022-07-28T21:49:35.458Z,22.07
2022-07-28T21:52:05.498Z,22.12
2022-07-28T21:54:33.541Z,22.08
2022-07-28T21:57:22.453Z,22.03
2022-07-28T21:59:55.939Z,21.96
2022-07-28T22:02:26.632Z,21.87
2022-07-28T22:04:54.691Z,21.77
2022-07-28T22:07:24.872Z,21.68
2022-07-28T22:09:53.289Z,21.67
2022-07-28T22:12:22.936Z,21.64
2022-07-28T22:14:51.088Z,21.58
2022-07-28T22:17:19.396Z,21.55
2022-07-28T22:19:47.536Z,21.55
2022-07-28T22:22:18.308Z,21.55
2022-07-28T22:24:48.204Z,21.58
2022-07-28T22:27:16.387Z,21.57
2022-07-28T22:29:50.013Z,21.58
2022-07-28T22:32:28.727Z,21.53
2022-07-28T22:34:58.238Z,21.51
2022-07-28T22:37:26.657Z,21.49
2022-07-28T22:39:56.344Z,21.49
2022-07-28T22:42:24.603Z,21.49
2022-07-28T22:44:52.958Z,21.46
2022-07-28T22:47:21.053Z,21.45
2022-07-28T22:49:53.863Z,21.47
2022-07-28T22:52:25.940Z,21.38
2022-07-28T22:54:54.412Z,21.35
2022-07-28T22:57:26.039Z,21.27
2022-07-28T22:59:54.675Z,21.23
2022-07-28T23:02:25.950Z,21.25
2022-07-28T23:04:54.850Z,21.24
2022-07-28T23:07:43.095Z,21.25
2022-07-28T23:10:16.318Z,21.23
2022-07-28T23:12:49.007Z,21.21
2022-07-28T23:15:17.377Z,21.20
2022-07-28T23:17:45.389Z,21.09
2022-07-28T23:20:16.137Z,21.00
2022-07-28T23:22:44.208Z,20.89
2022-07-28T23:25:14.394Z,20.93
2022-07-28T23:27:45.202Z,20.89
2022-07-28T23:30:15.350Z,20.83
2022-07-28T23:32:43.797Z,20.76
2022-07-28T23:35:12.520Z,20.67
2022-07-28T23:37:40.564Z,20.68
2022-07-28T23:40:09.814Z,20.56
2022-07-28T23:42:41.071Z,20.55
2022-07-28T23:45:10.210Z,20.43
2022-07-28T23:47:42.383Z,20.38
2022-07-28T23:50:10.916Z,20.29
2022-07-28T23:52:39.215Z,20.26
2022-07-28T23:55:09.039Z,20.20
2022-07-28T23:57:37.237Z,20.17
